Time;durP1;ratioP1;P1;durP2;ratioP2;P2;SDS_P1;SDS_P2;PMS_P1;PMS_P2;Temp;Humidity;BMP_temperature;BMP_pressure;BME280_temperature;BME280_humidity;BME280_pressure;Samples;Min_cycle;Max_cycle;Signal;HPM_P1;HPM_P2
2022/06/19 00:01:09;;;;;;;8.40;3.50;;;20.80;75.80;;;;;;5006125;28;20042;-79
2022/06/19 00:03:49;;;;;;;7.85;3.70;;;20.70;77.00;;;;;;5005330;28;20030;-79
2022/06/19 00:06:15;;;;;;;5.32;3.28;;;20.70;76.70;;;;;;5010356;28;20061;-79
2022/06/19 00:08:42;;;;;;;9.05;3.13;;;20.60;77.20;;;;;;4995306;28;20041;-79
2022/06/19 00:11:11;;;;;;;7.13;3.72;;;20.50;77.20;;;;;;5014327;28;20034;-79
2022/06/19 00:13:38;;;;;;;7.22;3.88;;;20.50;77.10;;;;;;5006829;28;20124;-78
2022/06/19 00:16:04;;;;;;;4.22;3.45;;;20.50;77.90;;;;;;5004693;28;20026;-79
2022/06/19 00:18:30;;;;;;;8.45;3.25;;;20.50;77.70;;;;;;5001895;28;20046;-79
2022/06/19 00:20:56;;;;;;;4.90;3.63;;;20.50;78.10;;;;;;4995417;28;20421;-79
2022/06/19 00:23:22;;;;;;;7.35;3.63;;;20.50;78.00;;;;;;5003334;28;20030;-78
2022/06/19 00:25:48;;;;;;;4.95;3.63;;;20.50;78.30;;;;;;5009898;28;20053;-79
2022/06/19 00:28:14;;;;;;;8.77;3.72;;;20.50;78.60;;;;;;5004763;28;20038;-79
2022/06/19 00:30:40;;;;;;;5.90;3.97;;;20.50;78.90;;;;;;5014185;28;20045;-79
2022/06/19 00:33:06;;;;;;;7.15;3.55;;;20.50;78.80;;;;;;5001242;28;20030;-79
2022/06/19 00:35:32;;;;;;;6.15;3.00;;;20.50;79.10;;;;;;5005175;28;20037;-79
2022/06/19 00:37:58;;;;;;;4.15;2.80;;;20.50;79.30;;;;;;5004561;28;20030;-79
2022/06/19 00:40:30;;;;;;;6.82;3.63;;;20.50;78.80;;;;;;5000049;28;20089;-79
2022/06/19 00:42:55;;;;;;;6.80;3.10;;;20.50;78.80;;;;;;5011200;28;20437;-79
2022/06/19 00:45:33;;;;;;;10.00;2.78;;;20.50;78.80;;;;;;5005047;28;20030;-79
2022/06/19 00:48:01;;;;;;;4.82;3.75;;;20.40;78.60;;;;;;5009745;28;20038;-78
2022/06/19 00:50:35;;;;;;;8.75;3.10;;;20.50;78.90;;;;;;5004764;28;20036;-78
2022/06/19 00:53:04;;;;;;;3.60;3.22;;;20.40;79.10;;;;;;4984584;28;20652;-78
2022/06/19 00:55:36;;;;;;;4.15;3.05;;;20.40;79.40;;;;;;5003903;28;20068;-79
2022/06/19 00:58:20;;;;;;;4.07;3.55;;;20.40;80.10;;;;;;5007432;28;20030;-78
2022/06/19 01:00:50;;;;;;;10.80;3.45;;;20.30;80.50;;;;;;5004786;28;20129;-79
2022/06/19 01:03:25;;;;;;;7.03;3.88;;;20.30;81.00;;;;;;5006365;28;20474;-79
2022/06/19 01:05:52;;;;;;;4.72;3.38;;;20.30;81.10;;;;;;5017208;28;20427;-79
2022/06/19 01:08:17;;;;;;;7.13;3.67;;;20.30;81.40;;;;;;5009160;28;20066;-79
2022/06/19 01:10:47;;;;;;;6.40;4.00;;;20.30;81.50;;;;;;4980806;28;20061;-79
2022/06/19 01:13:16;;;;;;;6.25;3.72;;;20.30;81.50;;;;;;5002659;28;20054;-79
2022/06/19 01:15:42;;;;;;;6.68;3.70;;;20.40;81.50;;;;;;4991665;28;20022;-79
2022/06/19 01:18:09;;;;;;;5.47;2.97;;;20.50;81.40;;;;;;5009862;28;20117;-79
2022/06/19 01:20:36;;;;;;;4.43;3.63;;;20.50;81.20;;;;;;5012151;28;20113;-79
2022/06/19 01:23:16;;;;;;;6.35;3.33;;;20.50;80.90;;;;;;5005421;28;20042;-78
2022/06/19 01:25:43;;;;;;;3.33;2.80;;;20.60;80.50;;;;;;4993870;28;20030;-78
2022/06/19 01:31:00;;;;;;;7.85;3.38;;;20.70;80.20;;;;;;5006631;28;20041;-79
2022/06/19 01:33:45;;;;;;;4.60;3.25;;;20.70;80.20;;;;;;5000100;28;20026;-79
2022/06/19 01:36:13;;;;;;;3.95;3.17;;;20.70;80.00;;;;;;5019030;28;20038;-79
2022/06/19 01:38:41;;;;;;;3.85;3.45;;;20.60;80.10;;;;;;4991762;28;20057;-79
2022/06/19 01:41:15;;;;;;;5.35;2.95;;;20.60;80.10;;;;;;5003845;28;20038;-79
2022/06/19 01:43:41;;;;;;;4.88;3.00;;;20.60;79.90;;;;;;5002927;28;20566;-79
2022/06/19 01:46:07;;;;;;;3.65;2.88;;;20.60;79.80;;;;;;5002378;28;20515;-79
2022/06/19 01:48:34;;;;;;;3.70;3.13;;;20.50;79.80;;;;;;5005011;28;20108;-79
2022/06/19 01:51:03;;;;;;;5.00;2.88;;;20.50;80.10;;;;;;5007195;28;20088;-79
2022/06/19 01:53:39;;;;;;;5.88;3.10;;;20.50;80.30;;;;;;5012636;28;20037;-78
2022/06/19 01:56:08;;;;;;;3.65;3.00;;;20.40;80.80;;;;;;5008174;28;20034;-78
2022/06/19 01:58:36;;;;;;;4.13;3.15;;;20.40;80.50;;;;;;4986716;28;20443;-79
2022/06/19 02:01:05;;;;;;;4.38;2.60;;;20.40;81.10;;;;;;5005043;28;20026;-79
2022/06/19 02:03:48;;;;;;;3.00;2.70;;;20.30;81.30;;;;;;5009187;28;20045;-78
2022/06/19 02:06:18;;;;;;;6.38;3.00;;;20.30;81.80;;;;;;5007411;28;20030;-79
2022/06/19 02:08:44;;;;;;;3.40;2.80;;;20.20;82.50;;;;;;4998754;28;20967;-79
2022/06/19 02:11:11;;;;;;;3.53;2.92;;;20.10;82.90;;;;;;5007350;28;20030;-78
2022/06/19 02:13:39;;;;;;;7.32;3.45;;;20.00;83.00;;;;;;5003955;28;20041;-79
2022/06/19 02:16:08;;;;;;;5.30;3.40;;;19.90;83.70;;;;;;5006875;28;20069;-78
2022/06/19 02:18:38;;;;;;;5.03;3.33;;;19.90;84.10;;;;;;5001058;28;20026;-78
2022/06/19 02:21:12;;;;;;;6.10;3.40;;;19.80;84.20;;;;;;4989065;28;20116;-79
2022/06/19 02:23:39;;;;;;;6.38;3.28;;;19.80;84.40;;;;;;5002621;28;20030;-78
2022/06/19 02:26:12;;;;;;;5.95;3.60;;;19.80;84.70;;;;;;5006671;28;20037;-78
2022/06/19 02:28:46;;;;;;;5.78;3.30;;;19.80;85.00;;;;;;5008994;28;20664;-79
2022/06/19 02:31:11;;;;;;;4.07;3.25;;;19.80;85.30;;;;;;5010711;28;20034;-79
2022/06/19 02:33:44;;;;;;;3.67;3.13;;;19.80;85.40;;;;;;5008550;28;20042;-79
2022/06/19 02:36:36;;;;;;;3.83;3.42;;;19.80;85.40;;;;;;5012172;28;20041;-80
2022/06/19 02:39:34;;;;;;;6.20;3.45;;;19.80;85.20;;;;;;5034440;28;20095;-80
2022/06/19 02:42:17;;;;;;;5.43;3.00;;;19.80;85.50;;;;;;5025303;28;20124;-80
2022/06/19 02:44:44;;;;;;;4.25;3.05;;;19.80;85.50;;;;;;5006456;28;20096;-80
2022/06/19 02:47:10;;;;;;;4.53;3.30;;;19.70;85.50;;;;;;5009187;28;20030;-80
2022/06/19 02:49:37;;;;;;;6.03;3.38;;;19.70;85.80;;;;;;5013100;28;20034;-80
2022/06/19 02:52:04;;;;;;;3.22;2.92;;;19.70;86.40;;;;;;5009545;28;20034;-80
2022/06/19 02:54:31;;;;;;;3.17;2.90;;;19.60;86.70;;;;;;5004288;28;20069;-79
2022/06/19 02:56:57;;;;;;;5.65;3.38;;;19.60;86.80;;;;;;5003849;28;20100;-80
2022/06/19 02:59:23;;;;;;;5.50;3.60;;;19.50;87.20;;;;;;5003289;28;20433;-80
2022/06/19 03:01:49;;;;;;;2.97;2.72;;;19.50;87.70;;;;;;4996947;28;20038;-79
2022/06/19 03:04:20;;;;;;;3.80;3.42;;;19.50;87.60;;;;;;5003008;28;20499;-80
2022/06/19 03:06:46;;;;;;;4.10;3.05;;;19.50;87.80;;;;;;5007532;28;20045;-79
2022/06/19 03:09:12;;;;;;;4.25;3.58;;;19.50;88.40;;;;;;5001527;28;20030;-80
2022/06/19 03:11:38;;;;;;;4.72;3.42;;;19.40;88.30;;;;;;4996184;28;20604;-78
2022/06/19 03:14:04;;;;;;;3.78;3.20;;;19.40;88.10;;;;;;4998919;28;20034;-80
2022/06/19 03:16:29;;;;;;;4.22;3.55;;;19.40;88.40;;;;;;5009239;28;20082;-79
2022/06/19 03:18:57;;;;;;;3.72;3.30;;;19.40;88.20;;;;;;4995797;28;20034;-80
2022/06/19 03:21:23;;;;;;;4.93;3.22;;;19.40;88.10;;;;;;5012218;28;20117;-80
2022/06/19 03:23:49;;;;;;;3.15;2.85;;;19.40;88.60;;;;;;5003526;28;20076;-80
2022/06/19 03:26:14;;;;;;;4.65;3.10;;;19.40;88.40;;;;;;5005402;28;20037;-80
2022/06/19 03:28:40;;;;;;;3.80;3.42;;;19.40;88.60;;;;;;5010281;28;20038;-79
2022/06/19 03:31:06;;;;;;;3.03;2.78;;;19.40;89.20;;;;;;5007362;28;20030;-80
2022/06/19 03:33:32;;;;;;;5.50;3.05;;;19.40;89.10;;;;;;5008982;28;20031;-80
2022/06/19 03:35:57;;;;;;;3.38;3.08;;;19.40;89.30;;;;;;5009366;28;20022;-80
2022/06/19 03:38:23;;;;;;;5.57;3.30;;;19.30;89.30;;;;;;5008363;28;20093;-81
2022/06/19 03:40:49;;;;;;;3.47;3.00;;;19.30;89.40;;;;;;4998072;28;20181;-80
2022/06/19 03:43:15;;;;;;;6.85;3.53;;;19.30;89.40;;;;;;4993738;28;20041;-80
2022/06/19 03:45:40;;;;;;;4.38;3.17;;;19.30;89.40;;;;;;5005715;28;20041;-81
2022/06/19 03:48:08;;;;;;;3.28;2.90;;;19.40;89.30;;;;;;4994875;28;20047;-81
2022/06/19 03:50:34;;;;;;;3.55;3.20;;;19.40;89.90;;;;;;5012913;28;20076;-80
2022/06/19 03:52:59;;;;;;;3.08;2.83;;;19.40;89.80;;;;;;5004965;28;20035;-81
2022/06/19 03:55:25;;;;;;;3.58;3.28;;;19.40;90.10;;;;;;4994973;28;20038;-79
2022/06/19 03:57:51;;;;;;;7.07;3.10;;;19.40;90.20;;;;;;5000888;28;20117;-80
2022/06/19 04:00:18;;;;;;;3.88;3.47;;;19.40;90.10;;;;;;4993404;28;20040;-80
2022/06/19 04:02:44;;;;;;;3.45;3.00;;;19.40;90.10;;;;;;4994136;28;20053;-80
2022/06/19 04:05:14;;;;;;;3.17;2.88;;;19.50;90.20;;;;;;5010468;28;20038;-80
2022/06/19 04:07:45;;;;;;;3.08;2.72;;;19.50;90.10;;;;;;5011680;28;20061;-80
2022/06/19 04:10:11;;;;;;;3.17;2.80;;;19.50;90.00;;;;;;4997860;28;20069;-79
2022/06/19 04:12:37;;;;;;;4.60;3.67;;;19.50;90.00;;;;;;5005442;28;20041;-80
2022/06/19 04:15:04;;;;;;;3.88;3.47;;;19.60;90.00;;;;;;5002711;28;20026;-80
2022/06/19 04:17:30;;;;;;;3.25;2.90;;;19.60;90.00;;;;;;5006999;28;20096;-78
2022/06/19 04:19:55;;;;;;;3.72;3.42;;;19.60;90.00;;;;;;5003994;28;20038;-80
2022/06/19 04:22:21;;;;;;;3.58;3.20;;;19.70;90.00;;;;;;5007623;28;20413;-80
2022/06/19 04:24:47;;;;;;;3.40;3.10;;;19.70;90.10;;;;;;5008016;28;20432;-80
2022/06/19 04:27:13;;;;;;;3.58;2.80;;;19.70;90.40;;;;;;5015091;28;20061;-80
2022/06/19 04:29:38;;;;;;;4.93;3.15;;;19.70;90.60;;;;;;5007902;28;20088;-80
2022/06/19 04:32:04;;;;;;;4.68;3.05;;;19.80;90.20;;;;;;5012722;28;20084;-80
2022/06/19 04:34:30;;;;;;;3.92;2.97;;;19.80;90.10;;;;;;5013855;28;20393;-79
2022/06/19 04:36:56;;;;;;;5.50;3.00;;;19.80;89.90;;;;;;5000294;28;20473;-80
2022/06/19 04:39:21;;;;;;;3.75;3.28;;;19.90;89.80;;;;;;5008341;28;20030;-80
2022/06/19 04:41:47;;;;;;;4.30;3.40;;;19.90;89.90;;;;;;5009868;28;20432;-79
2022/06/19 04:44:15;;;;;;;3.53;2.80;;;20.00;89.50;;;;;;5003040;28;20038;-79
2022/06/19 04:46:42;;;;;;;3.45;2.80;;;20.10;89.00;;;;;;5015209;28;20050;-80
2022/06/19 04:49:08;;;;;;;3.80;2.80;;;20.10;89.10;;;;;;5005311;28;20030;-80
2022/06/19 04:51:33;;;;;;;2.97;2.67;;;20.30;89.60;;;;;;4994509;28;20038;-80
2022/06/19 04:53:59;;;;;;;4.43;3.10;;;20.30;89.50;;;;;;5007480;28;20482;-80
2022/06/19 04:56:25;;;;;;;4.30;3.08;;;20.40;89.40;;;;;;4994977;28;20041;-80
2022/06/19 04:58:52;;;;;;;3.20;2.90;;;20.50;88.10;;;;;;5010821;28;20117;-80
2022/06/19 05:01:28;;;;;;;3.75;3.20;;;20.60;87.50;;;;;;5006357;28;20034;-80
2022/06/19 05:03:57;;;;;;;6.40;3.67;;;20.70;86.10;;;;;;4996622;28;20034;-81
2022/06/19 05:06:24;;;;;;;6.20;3.10;;;20.80;85.30;;;;;;4995275;28;20084;-79
2022/06/19 05:08:50;;;;;;;3.95;3.00;;;20.90;86.10;;;;;;4999643;28;20526;-81
2022/06/19 05:11:17;;;;;;;4.05;3.17;;;21.00;88.70;;;;;;5013103;28;20070;-80
2022/06/19 05:13:43;;;;;;;3.20;2.90;;;21.10;87.70;;;;;;5003052;28;20520;-80
2022/06/19 05:16:15;;;;;;;4.53;2.80;;;21.20;85.70;;;;;;5012265;28;20030;-81
2022/06/19 05:18:42;;;;;;;5.07;3.00;;;21.30;84.40;;;;;;5006743;28;20061;-79
2022/06/19 05:21:08;;;;;;;3.22;2.80;;;21.50;84.30;;;;;;5008146;28;20033;-79
2022/06/19 05:23:35;;;;;;;3.10;2.60;;;21.60;84.20;;;;;;5005109;28;20516;-80
2022/06/19 05:26:04;;;;;;;2.42;2.22;;;21.70;84.60;;;;;;5018700;28;20059;-80
2022/06/19 05:28:30;;;;;;;4.53;2.90;;;21.90;81.90;;;;;;5016614;28;20037;-81
2022/06/19 05:30:58;;;;;;;3.85;2.80;;;22.10;79.40;;;;;;5013465;28;20026;-81
2022/06/19 05:33:24;;;;;;;2.97;2.53;;;22.30;79.40;;;;;;5011482;28;20030;-80
2022/06/19 05:35:49;;;;;;;3.83;3.00;;;22.70;76.80;;;;;;5015453;28;20076;-80
2022/06/19 05:38:15;;;;;;;3.80;2.35;;;23.00;74.80;;;;;;4993918;28;20489;-80
2022/06/19 05:40:41;;;;;;;3.83;2.45;;;23.30;73.90;;;;;;5002573;28;20052;-81
2022/06/19 05:43:08;;;;;;;3.55;3.00;;;23.50;73.00;;;;;;5006084;28;20532;-80
2022/06/19 05:45:34;;;;;;;2.92;2.72;;;23.80;71.60;;;;;;5008357;28;20022;-81
2022/06/19 05:48:00;;;;;;;4.95;2.90;;;23.90;71.10;;;;;;5005727;28;20120;-81
2022/06/19 05:50:26;;;;;;;5.88;2.90;;;24.20;70.70;;;;;;4995438;28;20030;-80
2022/06/19 05:52:51;;;;;;;5.10;2.78;;;24.30;68.80;;;;;;5012523;28;20133;-80
2022/06/19 05:55:17;;;;;;;4.30;2.67;;;24.50;69.60;;;;;;5004619;28;20065;-81
2022/06/19 05:57:43;;;;;;;3.47;2.90;;;24.70;68.60;;;;;;5008463;28;20070;-80
2022/06/19 06:00:10;;;;;;;2.58;2.38;;;24.90;69.30;;;;;;5002491;28;20041;-81
2022/06/19 06:02:38;;;;;;;2.70;2.50;;;25.20;67.70;;;;;;5009544;28;20038;-80
2022/06/19 06:05:05;;;;;;;3.47;2.47;;;25.60;65.50;;;;;;5002445;28;20403;-80
2022/06/19 06:07:30;;;;;;;2.50;2.30;;;25.80;63.90;;;;;;5006579;28;20040;-80
2022/06/19 06:09:56;;;;;;;4.53;3.10;;;26.10;63.40;;;;;;4989963;28;20475;-80
2022/06/19 06:12:22;;;;;;;4.63;3.83;;;26.30;66.40;;;;;;5008562;28;20038;-81
2022/06/19 06:14:48;;;;;;;3.55;2.35;;;26.70;64.80;;;;;;5004190;28;20033;-80
2022/06/19 06:17:14;;;;;;;2.80;2.17;;;27.00;64.00;;;;;;5024049;28;20056;-80
2022/06/19 06:19:40;;;;;;;2.78;2.20;;;27.40;61.50;;;;;;4980808;28;20034;-81
2022/06/19 06:22:06;;;;;;;4.75;2.50;;;27.70;59.30;;;;;;4993783;28;20042;-80
2022/06/19 06:24:32;;;;;;;3.10;2.00;;;27.90;59.50;;;;;;5001131;28;20525;-81
2022/06/19 06:26:58;;;;;;;4.00;2.08;;;28.10;60.00;;;;;;5007711;28;20034;-81
2022/06/19 06:29:25;;;;;;;4.38;2.47;;;28.40;59.00;;;;;;5001977;28;20509;-80
2022/06/19 06:31:51;;;;;;;3.78;2.22;;;28.70;57.40;;;;;;5010565;28;20060;-81
2022/06/19 06:34:17;;;;;;;4.95;1.90;;;29.00;58.70;;;;;;4999551;28;20050;-81
2022/06/19 06:36:43;;;;;;;3.63;2.17;;;29.20;58.00;;;;;;5005570;28;20029;-81
2022/06/19 06:39:09;;;;;;;2.35;2.10;;;29.40;58.70;;;;;;5003302;28;20053;-81
2022/06/19 06:41:35;;;;;;;2.33;2.10;;;29.80;56.00;;;;;;4982419;28;20405;-81
2022/06/19 06:44:01;;;;;;;3.78;1.90;;;30.10;56.60;;;;;;4996545;28;20038;-81
2022/06/19 06:46:27;;;;;;;3.55;2.10;;;30.40;55.10;;;;;;5006424;28;20108;-79
2022/06/19 06:48:55;;;;;;;3.80;2.30;;;30.60;52.10;;;;;;5005349;28;20036;-80
2022/06/19 06:51:24;;;;;;;3.05;2.28;;;30.60;50.80;;;;;;4994888;28;20105;-79
2022/06/19 06:53:50;;;;;;;4.78;2.10;;;30.40;50.80;;;;;;4999911;28;20046;-79
2022/06/19 06:56:17;;;;;;;2.45;2.13;;;30.20;51.90;;;;;;5009184;28;20022;-79
2022/06/19 06:58:43;;;;;;;3.72;2.05;;;29.80;53.40;;;;;;4995552;28;20101;-80
2022/06/19 07:01:19;;;;;;;7.40;2.80;;;29.90;51.30;;;;;;4996914;28;20088;-78
2022/06/19 07:03:47;;;;;;;6.57;2.50;;;29.70;52.40;;;;;;4998163;28;20057;-79
2022/06/19 07:06:12;;;;;;;2.65;2.08;;;29.80;51.10;;;;;;5022747;28;20029;-78
2022/06/19 07:08:41;;;;;;;13.80;2.50;;;30.00;51.40;;;;;;5003149;28;20030;-78
2022/06/19 07:11:08;;;;;;;3.70;1.98;;;30.20;50.90;;;;;;5002077;28;20037;-78
2022/06/19 07:13:38;;;;;;;3.15;2.00;;;30.20;50.70;;;;;;5003783;28;20038;-78
2022/06/19 07:16:04;;;;;;;3.40;2.25;;;30.30;50.20;;;;;;5012684;28;20496;-79
2022/06/19 07:18:29;;;;;;;4.50;1.80;;;30.40;50.60;;;;;;4995642;28;20045;-78
2022/06/19 07:20:55;;;;;;;4.63;1.90;;;30.60;50.40;;;;;;4999521;28;20033;-79
2022/06/19 07:23:21;;;;;;;4.70;2.20;;;30.40;49.50;;;;;;4998653;28;20050;-79
2022/06/19 07:25:47;;;;;;;4.47;2.08;;;30.50;50.00;;;;;;5010484;28;20029;-78
2022/06/19 07:28:17;;;;;;;11.60;3.47;;;30.40;49.50;;;;;;5002783;28;20407;-78
2022/06/19 07:30:45;;;;;;;2.60;2.08;;;30.40;50.80;;;;;;5002225;28;20037;-79
2022/06/19 07:33:11;;;;;;;4.85;2.30;;;31.00;52.10;;;;;;5013052;28;20156;-79
2022/06/19 07:35:36;;;;;;;5.00;2.10;;;31.40;50.00;;;;;;4995847;28;20029;-79
2022/06/19 07:38:02;;;;;;;8.02;3.03;;;31.50;47.80;;;;;;5010379;28;20077;-80
2022/06/19 07:40:28;;;;;;;4.30;1.77;;;31.60;47.30;;;;;;5007744;28;20468;-79
2022/06/19 07:42:54;;;;;;;7.20;2.17;;;31.90;49.50;;;;;;5005939;28;20031;-79
2022/06/19 07:45:20;;;;;;;7.80;1.92;;;32.30;49.10;;;;;;4975646;28;20073;-80
2022/06/19 07:50:30;;;;;;;3.63;2.13;;;32.60;45.70;;;;;;5012843;28;20060;-80
2022/06/19 07:52:55;;;;;;;6.35;1.70;;;32.40;46.70;;;;;;5014737;28;20081;-78
2022/06/19 07:55:25;;;;;;;6.55;1.90;;;32.50;46.80;;;;;;5005071;28;20062;-78
2022/06/19 07:57:52;;;;;;;5.38;2.75;;;32.60;46.50;;;;;;5016548;28;20026;-79
2022/06/19 08:00:24;;;;;;;7.97;2.47;;;32.70;46.70;;;;;;5032277;28;20029;-79
2022/06/19 08:02:52;;;;;;;3.90;1.95;;;32.70;45.40;;;;;;5010344;28;20038;-78
2022/06/19 08:05:19;;;;;;;3.75;1.90;;;32.60;46.30;;;;;;4997774;28;20080;-79
2022/06/19 08:07:45;;;;;;;9.70;2.17;;;32.60;48.80;;;;;;5014128;28;20022;-79
2022/06/19 08:10:20;;;;;;;5.93;2.00;;;32.70;45.70;;;;;;5014266;28;20125;-79
2022/06/19 08:12:47;;;;;;;8.40;2.17;;;32.60;46.80;;;;;;5033637;28;20076;-78
2022/06/19 08:15:13;;;;;;;8.43;2.35;;;32.70;44.90;;;;;;5033680;28;20037;-78
2022/06/19 08:17:39;;;;;;;10.50;2.90;;;32.70;44.90;;;;;;4997160;28;20528;-79
2022/06/19 08:20:05;;;;;;;6.82;1.92;;;32.70;44.90;;;;;;5013167;28;20059;-78
2022/06/19 08:22:32;;;;;;;4.00;2.58;;;32.70;47.30;;;;;;5000366;28;20485;-80
2022/06/19 08:24:58;;;;;;;5.93;2.35;;;32.70;47.20;;;;;;5001228;28;20084;-80
2022/06/19 08:27:23;;;;;;;4.72;2.10;;;32.70;46.70;;;;;;4992541;28;20085;-79
2022/06/19 08:29:49;;;;;;;7.32;2.83;;;32.70;47.50;;;;;;4964059;28;20085;-79
2022/06/19 08:32:15;;;;;;;6.78;4.10;;;32.70;48.70;;;;;;5009415;28;20461;-79
2022/06/19 08:34:40;;;;;;;5.53;2.42;;;32.60;45.40;;;;;;5010212;28;20093;-79
2022/06/19 08:37:09;;;;;;;9.15;2.67;;;32.60;46.80;;;;;;5008091;28;20427;-80
2022/06/19 08:39:36;;;;;;;7.88;2.42;;;32.60;47.20;;;;;;5005487;28;20084;-80
2022/06/19 08:42:22;;;;;;;12.52;2.60;;;32.50;45.60;;;;;;5008218;28;20038;-80
2022/06/19 08:45:23;;;;;;;8.32;2.88;;;32.50;47.10;;;;;;5007752;28;20062;-80
2022/06/19 08:48:04;;;;;;;7.30;2.45;;;32.40;46.80;;;;;;4967369;28;20085;-79
2022/06/19 08:50:41;;;;;;;6.20;2.15;;;32.60;47.70;;;;;;5004783;28;20099;-79
2022/06/19 08:53:13;;;;;;;7.05;1.98;;;32.70;46.70;;;;;;5003732;28;20087;-79
2022/06/19 08:55:58;;;;;;;6.05;1.80;;;32.80;45.50;;;;;;4999586;28;20410;-79
2022/06/19 08:58:39;;;;;;;4.90;1.70;;;33.00;44.30;;;;;;5010597;28;20544;-79
2022/06/19 09:01:13;;;;;;;5.72;2.13;;;33.20;46.50;;;;;;5012739;28;20030;-78
2022/06/19 09:06:51;;;;;;;5.13;2.10;;;33.80;46.60;;;;;;5019239;28;20049;-79
2022/06/19 09:09:44;;;;;;;8.70;3.17;;;33.70;46.50;;;;;;5032928;28;20036;-78
2022/06/19 09:12:30;;;;;;;5.32;1.90;;;33.50;46.60;;;;;;5027721;28;20037;-78
2022/06/19 09:15:10;;;;;;;4.50;1.90;;;33.50;46.60;;;;;;5013525;28;20018;-78
2022/06/19 09:17:51;;;;;;;5.40;2.45;;;33.20;47.20;;;;;;5010532;28;20030;-78
2022/06/19 09:20:34;;;;;;;5.10;2.50;;;33.00;46.30;;;;;;4996919;28;20022;-78
2022/06/19 09:23:23;;;;;;;8.95;2.30;;;32.80;47.60;;;;;;5013303;28;20033;-78
2022/06/19 09:25:49;;;;;;;7.65;2.95;;;32.60;48.10;;;;;;5019177;28;20037;-78
2022/06/19 09:28:39;;;;;;;10.02;3.15;;;32.30;48.40;;;;;;5013060;28;20393;-78
2022/06/19 09:31:14;;;;;;;5.90;3.05;;;32.10;48.50;;;;;;5008247;28;20038;-78
2022/06/19 09:34:14;;;;;;;5.47;2.90;;;31.80;49.80;;;;;;5001104;28;20041;-78
2022/06/19 09:36:45;;;;;;;7.90;3.20;;;31.60;49.70;;;;;;5022860;28;20029;-78
2022/06/19 09:39:28;;;;;;;7.07;3.25;;;31.50;51.50;;;;;;5003131;28;20038;-78
2022/06/19 09:42:19;;;;;;;6.35;3.92;;;31.40;50.10;;;;;;4994281;28;20069;-80
2022/06/19 09:45:18;;;;;;;10.55;3.47;;;31.30;50.50;;;;;;5000867;28;20029;-79
2022/06/19 09:47:57;;;;;;;7.38;3.47;;;31.30;51.50;;;;;;5007643;28;20030;-80
2022/06/19 09:50:32;;;;;;;6.47;4.10;;;31.30;51.60;;;;;;5001736;28;20749;-80
2022/06/19 09:53:24;;;;;;;6.95;3.47;;;31.30;51.60;;;;;;5010294;28;20030;-80
2022/06/19 09:55:58;;;;;;;9.43;3.47;;;31.30;50.70;;;;;;5003430;28;20042;-80
2022/06/19 09:58:32;;;;;;;7.75;4.10;;;31.40;52.00;;;;;;5000284;28;20050;-79
2022/06/19 10:01:00;;;;;;;6.90;3.92;;;31.40;52.00;;;;;;5003077;28;20037;-79
2022/06/19 10:03:48;;;;;;;11.25;3.50;;;31.50;53.60;;;;;;5000461;28;20063;-80
2022/06/19 10:06:21;;;;;;;9.07;4.20;;;31.60;52.40;;;;;;5004627;28;20034;-80
2022/06/19 10:08:58;;;;;;;6.95;3.80;;;31.60;53.00;;;;;;5004035;28;20038;-79
2022/06/19 10:11:28;;;;;;;8.25;4.10;;;31.70;51.00;;;;;;5004915;28;20552;-80
2022/06/19 10:14:22;;;;;;;7.03;3.90;;;31.70;51.80;;;;;;4982689;28;20026;-79
2022/06/19 10:17:02;;;;;;;11.10;4.13;;;31.70;51.10;;;;;;5021863;28;20041;-79
2022/06/19 10:19:48;;;;;;;10.48;4.15;;;31.60;51.00;;;;;;5030148;28;20049;-78
2022/06/19 10:22:17;;;;;;;8.82;3.88;;;31.60;51.40;;;;;;4995484;28;20044;-78
2022/06/19 10:24:52;;;;;;;9.32;3.90;;;31.60;51.50;;;;;;4997250;28;20044;-81
2022/06/19 10:27:31;;;;;;;8.43;3.75;;;31.70;51.30;;;;;;5010363;28;20041;-79
2022/06/19 10:30:00;;;;;;;7.47;3.65;;;31.80;48.00;;;;;;5011994;28;20034;-78
2022/06/19 10:32:34;;;;;;;7.53;3.80;;;31.90;50.00;;;;;;5013770;28;20467;-78
2022/06/19 10:35:25;;;;;;;9.50;4.05;;;32.00;51.80;;;;;;4998784;28;20030;-78
2022/06/19 10:38:26;;;;;;;8.25;3.72;;;32.00;51.20;;;;;;5001526;28;20038;-79
2022/06/19 10:41:01;;;;;;;5.18;4.07;;;31.90;48.60;;;;;;5015962;28;20027;-79
2022/06/19 10:43:55;;;;;;;8.27;3.65;;;32.00;50.40;;;;;;5019896;28;20241;-78
2022/06/19 10:46:24;;;;;;;9.23;4.43;;;32.10;51.30;;;;;;5009924;28;20029;-78
2022/06/19 10:48:59;;;;;;;9.52;4.00;;;32.20;51.90;;;;;;5009641;28;20452;-78
2022/06/19 10:52:05;;;;;;;6.20;3.83;;;32.20;50.20;;;;;;5006102;28;20494;-80
2022/06/19 10:54:39;;;;;;;11.70;3.83;;;32.30;50.80;;;;;;5009510;28;20038;-79
2022/06/19 10:57:17;;;;;;;7.57;3.80;;;32.30;49.60;;;;;;5013745;28;20497;-79
2022/06/19 10:59:43;;;;;;;11.77;3.92;;;32.40;50.10;;;;;;5002341;28;20265;-79
2022/06/19 11:05:22;;;;;;;8.68;3.70;;;32.50;48.40;;;;;;5010112;28;20069;-80
2022/06/19 11:07:48;;;;;;;8.70;4.32;;;32.60;48.50;;;;;;5016826;28;20018;-79
2022/06/19 11:10:24;;;;;;;6.88;3.53;;;32.70;49.50;;;;;;5004675;28;20037;-79
2022/06/19 11:12:56;;;;;;;13.98;4.13;;;32.70;48.70;;;;;;5010180;28;20065;-79
2022/06/19 11:15:24;;;;;;;8.18;3.90;;;32.80;49.50;;;;;;5007616;28;20132;-80
2022/06/19 11:18:11;;;;;;;8.00;4.35;;;32.90;48.00;;;;;;5014433;28;20042;-81
2022/06/19 11:20:38;;;;;;;7.20;3.53;;;33.10;47.20;;;;;;5011024;28;20036;-79
2022/06/19 11:23:21;;;;;;;5.82;3.78;;;33.10;45.00;;;;;;5020088;28;20357;-80
2022/06/19 11:26:07;;;;;;;5.75;3.72;;;33.10;48.10;;;;;;5006902;28;20391;-80
2022/06/19 11:29:00;;;;;;;7.53;4.00;;;33.20;46.90;;;;;;4991416;28;20035;-78
2022/06/19 11:31:40;;;;;;;9.82;3.55;;;33.30;46.60;;;;;;5002087;28;20030;-79
2022/06/19 11:37:31;;;;;;;11.75;4.20;;;33.30;47.30;;;;;;5016047;28;20037;-80
2022/06/19 11:40:00;;;;;;;10.65;5.07;;;33.50;46.60;;;;;;5011908;28;20092;-80
2022/06/19 11:42:28;;;;;;;9.15;4.50;;;33.50;46.90;;;;;;5017369;28;20109;-79
2022/06/19 11:45:12;;;;;;;8.48;4.78;;;33.50;45.20;;;;;;5013834;28;20030;-80
2022/06/19 11:47:48;;;;;;;12.60;5.03;;;33.60;46.60;;;;;;4991626;28;20038;-79
2022/06/19 11:50:33;;;;;;;6.70;4.30;;;33.70;47.30;;;;;;4997368;28;20030;-80
2022/06/19 11:53:05;;;;;;;;;;;34.00;45.80;;;;;;5007180;28;20088;-80
2022/06/19 11:55:51;;;;;;;9.55;4.18;;;34.10;46.20;;;;;;5000986;28;19991;-80
2022/06/19 11:58:38;;;;;;;6.18;3.70;;;34.20;45.30;;;;;;5014785;28;20093;-80
2022/06/19 12:01:06;;;;;;;5.10;4.10;;;34.40;45.80;;;;;;5016617;28;20030;-79
2022/06/19 12:03:48;;;;;;;13.32;3.97;;;34.30;44.20;;;;;;4996583;28;20113;-80
2022/06/19 12:06:19;;;;;;;10.43;4.22;;;34.40;45.10;;;;;;5013265;28;20037;-80
2022/06/19 12:08:57;;;;;;;8.20;3.97;;;34.50;46.10;;;;;;5017362;28;20025;-81
2022/06/19 12:11:52;;;;;;;6.70;3.55;;;34.60;44.10;;;;;;5017982;28;20374;-80
2022/06/19 12:14:31;;;;;;;14.20;5.53;;;34.60;43.50;;;;;;5014322;28;20109;-80
2022/06/19 12:17:25;;;;;;;8.52;3.85;;;34.70;44.00;;;;;;5012571;28;20031;-79
2022/06/19 12:20:04;;;;;;;12.80;3.95;;;34.90;44.10;;;;;;4997715;28;20069;-80
2022/06/19 12:22:49;;;;;;;14.25;4.75;;;35.10;41.30;;;;;;5025272;28;20057;-81
2022/06/19 12:25:33;;;;;;;10.95;4.75;;;35.40;42.90;;;;;;5018481;28;20400;-80
2022/06/19 12:28:31;;;;;;;8.35;3.80;;;35.60;40.10;;;;;;4997249;28;20436;-79
2022/06/19 12:31:03;;;;;;;12.23;3.92;;;35.90;41.70;;;;;;5016777;28;20030;-80
2022/06/19 12:33:49;;;;;;;8.95;3.90;;;36.20;41.30;;;;;;5015553;28;20113;-81
2022/06/19 12:36:21;;;;;;;12.93;3.75;;;36.30;40.20;;;;;;5015934;28;20038;-79
2022/06/19 12:38:50;;;;;;;6.55;4.10;;;36.50;40.40;;;;;;5013184;28;20034;-80
2022/06/19 12:41:26;;;;;;;10.30;4.32;;;36.70;40.10;;;;;;5019219;28;20056;-80
2022/06/19 12:44:04;;;;;;;11.20;4.28;;;36.80;40.10;;;;;;5006403;28;20049;-80
2022/06/19 12:46:48;;;;;;;7.57;4.00;;;37.00;38.60;;;;;;5012008;28;20034;-80
2022/06/19 12:49:54;;;;;;;12.00;4.28;;;37.10;38.70;;;;;;5009176;28;20555;-80
2022/06/19 12:52:47;;;;;;;13.73;3.85;;;37.30;39.00;;;;;;5013198;28;20034;-80
2022/06/19 12:55:13;;;;;;;11.23;4.38;;;37.40;38.80;;;;;;4999388;28;20029;-80
2022/06/19 12:58:08;;;;;;;15.27;4.25;;;37.20;38.20;;;;;;5035150;28;20400;-80
2022/06/19 13:00:43;;;;;;;10.25;3.92;;;37.20;38.90;;;;;;5013345;28;20132;-79
2022/06/19 13:03:39;;;;;;;10.90;3.80;;;37.20;38.50;;;;;;5017386;28;20022;-80
2022/06/19 13:06:40;;;;;;;15.35;5.15;;;37.20;36.30;;;;;;5018352;28;20076;-79
2022/06/19 13:09:41;;;;;;;8.98;4.85;;;37.10;36.70;;;;;;5011620;28;20025;-80
2022/06/19 13:12:09;;;;;;;14.82;4.03;;;37.10;37.40;;;;;;5017276;28;20129;-79
2022/06/19 13:14:53;;;;;;;11.00;4.40;;;37.10;37.50;;;;;;5012720;28;20026;-82
2022/06/19 13:17:56;;;;;;;11.55;4.00;;;37.20;37.30;;;;;;5020915;28;20022;-81
2022/06/19 13:20:43;;;;;;;10.95;3.83;;;37.20;36.00;;;;;;5040195;28;20137;-80
2022/06/19 13:23:27;;;;;;;11.75;4.85;;;37.30;37.90;;;;;;5011583;28;20548;-81
2022/06/19 13:29:33;;;;;;;10.30;3.47;;;37.20;37.50;;;;;;5002020;28;20452;-80